Time;durP1;ratioP1;P1;durP2;ratioP2;P2;SDS_P1;SDS_P2;PMS_P1;PMS_P2;Temp;Humidity;BMP_temperature;BMP_pressure;BME280_temperature;BME280_humidity;BME280_pressure;Samples;Min_cycle;Max_cycle;Signal;HPM_P1;HPM_P2
2024/04/16 00:00:24;;;;;;;1.30;1.30;;;9.80;41.40;;;;;;5295513;27;20248;-65
2024/04/16 00:02:50;;;;;;;1.10;1.10;;;9.80;41.50;;;;;;5294019;27;20237;-65
2024/04/16 00:05:18;;;;;;;1.43;1.30;;;9.80;40.70;;;;;;5290809;27;20331;-64
2024/04/16 00:07:44;;;;;;;1.50;1.13;;;9.80;40.70;;;;;;5305813;27;20735;-64
2024/04/16 00:10:13;;;;;;;1.20;1.10;;;9.90;40.80;;;;;;5276314;27;20252;-65
2024/04/16 00:12:38;;;;;;;1.07;1.00;;;9.90;40.80;;;;;;5285018;27;20349;-65
2024/04/16 00:15:07;;;;;;;1.10;1.00;;;9.80;41.40;;;;;;5299046;27;20251;-65
2024/04/16 00:17:34;;;;;;;1.10;1.10;;;9.80;40.10;;;;;;5298316;27;20250;-65
2024/04/16 00:20:02;;;;;;;1.00;1.00;;;9.80;40.50;;;;;;5301327;27;20622;-65
2024/04/16 00:22:27;;;;;;;1.47;1.20;;;9.80;40.70;;;;;;5290838;27;20244;-65
2024/04/16 00:24:56;;;;;;;1.60;1.50;;;9.80;40.10;;;;;;5291946;27;20369;-65
2024/04/16 00:27:21;;;;;;;1.53;1.30;;;9.80;40.70;;;;;;5283746;27;20246;-65
2024/04/16 00:29:50;;;;;;;1.23;1.23;;;9.70;40.60;;;;;;5287526;27;20352;-65
2024/04/16 00:32:15;;;;;;;1.20;1.20;;;9.70;40.60;;;;;;5285427;27;20690;-65
2024/04/16 00:34:43;;;;;;;1.30;1.20;;;9.60;40.80;;;;;;5291427;27;20251;-65
2024/04/16 00:37:09;;;;;;;1.30;1.30;;;9.60;40.50;;;;;;5268367;27;20303;-65
2024/04/16 00:39:37;;;;;;;1.10;1.10;;;9.60;40.50;;;;;;5292490;27;20246;-65
2024/04/16 00:42:03;;;;;;;1.30;1.17;;;9.30;40.30;;;;;;5292888;27;20237;-64
2024/04/16 00:44:31;;;;;;;1.00;1.00;;;9.50;40.80;;;;;;5288493;27;20249;-65
2024/04/16 00:46:57;;;;;;;1.10;1.10;;;9.30;41.40;;;;;;5294614;27;20347;-65
2024/04/16 00:49:25;;;;;;;1.10;1.10;;;9.30;41.50;;;;;;5283342;27;20259;-65
2024/04/16 00:51:50;;;;;;;1.20;1.13;;;9.30;42.50;;;;;;5288416;27;20249;-65
2024/04/16 00:54:19;;;;;;;1.20;1.20;;;9.20;43.30;;;;;;5299995;27;20332;-65
2024/04/16 00:56:45;;;;;;;1.60;1.43;;;9.20;43.10;;;;;;5290039;27;20304;-64
2024/04/16 00:59:13;;;;;;;1.30;1.13;;;9.20;43.10;;;;;;5294779;27;20299;-65
2024/04/16 01:01:39;;;;;;;1.20;1.10;;;9.00;44.60;;;;;;5295138;26;20283;-64
2024/04/16 01:04:07;;;;;;;1.73;1.10;;;9.10;44.40;;;;;;5288764;27;20240;-65
2024/04/16 01:06:33;;;;;;;2.23;1.30;;;9.30;43.40;;;;;;5289501;27;20600;-64
2024/04/16 01:09:01;;;;;;;1.30;1.20;;;9.10;43.70;;;;;;5287421;27;20251;-64
2024/04/16 01:11:27;;;;;;;1.13;1.00;;;9.00;44.40;;;;;;5281274;27;20279;-64
2024/04/16 01:13:55;;;;;;;1.20;1.20;;;9.00;44.40;;;;;;5291828;27;20239;-65
2024/04/16 01:16:21;;;;;;;1.20;1.20;;;9.10;44.00;;;;;;5295218;27;20829;-64
2024/04/16 01:18:49;;;;;;;2.37;1.23;;;9.10;43.00;;;;;;5300538;27;20237;-65
2024/04/16 01:21:14;;;;;;;1.27;1.20;;;9.00;43.80;;;;;;5291569;27;20308;-65
2024/04/16 01:23:43;;;;;;;1.73;1.30;;;9.00;43.40;;;;;;5292156;27;20341;-65
2024/04/16 01:26:08;;;;;;;1.30;1.20;;;8.90;43.90;;;;;;5298496;27;20247;-65
2024/04/16 01:28:37;;;;;;;1.17;1.17;;;8.70;44.20;;;;;;5246148;27;20255;-64
2024/04/16 01:31:02;;;;;;;2.20;1.50;;;8.90;44.50;;;;;;5292634;27;20266;-65
2024/04/16 01:33:30;;;;;;;1.20;1.20;;;8.60;44.80;;;;;;5292745;27;20629;-64
2024/04/16 01:35:56;;;;;;;1.30;1.30;;;8.60;45.20;;;;;;5295511;27;20706;-65
2024/04/16 01:38:24;;;;;;;1.37;1.27;;;8.60;45.50;;;;;;5300172;27;20255;-64
2024/04/16 01:40:50;;;;;;;1.43;1.33;;;8.70;45.40;;;;;;5296519;27;21262;-65
2024/04/16 01:43:18;;;;;;;1.00;1.00;;;8.70;45.40;;;;;;5292468;27;20247;-65
2024/04/16 01:45:44;;;;;;;1.70;1.20;;;8.80;45.20;;;;;;5286900;27;20259;-65
2024/04/16 01:48:12;;;;;;;1.30;1.20;;;8.90;45.90;;;;;;5283451;27;20354;-65
2024/04/16 01:50:37;;;;;;;2.17;1.20;;;8.80;46.70;;;;;;5292416;27;20338;-65
2024/04/16 01:53:06;;;;;;;1.27;1.17;;;8.80;46.90;;;;;;5296021;26;20267;-65
2024/04/16 01:55:31;;;;;;;2.40;1.40;;;8.80;47.10;;;;;;5292615;27;20255;-65
2024/04/16 01:57:59;;;;;;;1.13;1.13;;;8.60;48.00;;;;;;5295386;27;20239;-65
2024/04/16 02:00:25;;;;;;;1.80;1.20;;;8.50;47.90;;;;;;5297786;27;20331;-64
2024/04/16 02:02:54;;;;;;;1.30;1.20;;;8.50;48.80;;;;;;5296366;27;20749;-64
2024/04/16 02:05:20;;;;;;;1.10;1.10;;;8.50;48.70;;;;;;5278564;27;20804;-65
2024/04/16 02:07:48;;;;;;;1.47;1.37;;;8.10;49.70;;;;;;5289158;27;20238;-65
2024/04/16 02:10:15;;;;;;;1.67;1.40;;;8.00;50.60;;;;;;5296852;27;20320;-65
2024/04/16 02:12:43;;;;;;;1.43;1.33;;;8.20;49.70;;;;;;5290055;26;20243;-65
2024/04/16 02:15:09;;;;;;;1.33;1.33;;;8.20;50.10;;;;;;5277135;27;20306;-65
2024/04/16 02:17:37;;;;;;;1.30;1.30;;;8.30;50.40;;;;;;5292017;27;20341;-65
2024/04/16 02:20:03;;;;;;;1.20;1.20;;;8.20;50.30;;;;;;5285824;27;20464;-65
2024/04/16 02:22:31;;;;;;;1.33;1.33;;;8.30;50.40;;;;;;5289956;26;20255;-64
2024/04/16 02:24:57;;;;;;;1.60;1.47;;;8.40;50.10;;;;;;5291442;27;20330;-65
2024/04/16 02:27:25;;;;;;;1.57;1.47;;;8.40;49.90;;;;;;5290619;27;20412;-65
2024/04/16 02:29:51;;;;;;;1.30;1.30;;;8.40;50.00;;;;;;5293015;27;20255;-65
2024/04/16 02:32:19;;;;;;;1.23;1.20;;;8.40;50.30;;;;;;5297662;27;20246;-65
2024/04/16 02:34:44;;;;;;;1.43;1.20;;;8.20;51.10;;;;;;5297612;27;20241;-64
2024/04/16 02:37:13;;;;;;;1.80;1.40;;;8.30;51.50;;;;;;5279349;27;20681;-65
2024/04/16 02:39:38;;;;;;;1.43;1.30;;;8.30;50.70;;;;;;5291624;27;20689;-65
2024/04/16 02:42:06;;;;;;;1.10;1.10;;;8.30;51.00;;;;;;5296574;27;20262;-65
2024/04/16 02:44:32;;;;;;;1.90;1.20;;;8.30;51.10;;;;;;5261396;27;20275;-65
2024/04/16 02:47:00;;;;;;;2.90;1.37;;;8.10;51.30;;;;;;5281270;27;20259;-64
2024/04/16 02:49:26;;;;;;;2.40;1.50;;;8.10;50.90;;;;;;5297607;27;20638;-65
2024/04/16 02:51:54;;;;;;;1.40;1.30;;;8.00;51.30;;;;;;5295003;26;20351;-65
2024/04/16 02:54:20;;;;;;;1.53;1.30;;;8.10;50.20;;;;;;5292655;27;20303;-64
2024/04/16 02:56:48;;;;;;;2.17;1.60;;;8.10;51.10;;;;;;5275377;27;20365;-64
2024/04/16 03:01:51;;;;;;;1.27;1.27;;;7.80;51.50;;;;;;5365159;21;20863;-65
2024/04/16 03:04:17;;;;;;;1.60;1.50;;;7.80;52.10;;;;;;5304138;26;20303;-65
2024/04/16 03:06:45;;;;;;;1.60;1.50;;;7.60;52.40;;;;;;5313741;26;20689;-65
2024/04/16 03:09:11;;;;;;;4.37;1.43;;;7.60;52.40;;;;;;5317164;26;22730;-65
2024/04/16 03:11:39;;;;;;;3.00;1.80;;;7.50;52.30;;;;;;5302813;26;20253;-64
2024/04/16 03:14:05;;;;;;;3.33;1.70;;;7.50;52.40;;;;;;5323639;26;20376;-64
2024/04/16 03:16:33;;;;;;;2.57;1.60;;;7.50;52.50;;;;;;5310362;26;20253;-65
2024/04/16 03:18:59;;;;;;;2.00;1.70;;;7.60;52.50;;;;;;5310299;26;20238;-65
2024/04/16 03:21:27;;;;;;;3.07;1.83;;;7.60;52.70;;;;;;5326578;26;20267;-65
2024/04/16 03:23:53;;;;;;;4.07;2.10;;;7.70;52.50;;;;;;5324303;26;20709;-65
2024/04/16 03:26:21;;;;;;;3.17;1.63;;;7.50;51.70;;;;;;5331200;26;20249;-65
2024/04/16 03:28:47;;;;;;;2.57;1.70;;;7.50;52.80;;;;;;5304827;26;20299;-65
2024/04/16 03:31:15;;;;;;;1.67;1.50;;;7.20;53.00;;;;;;5322027;26;20245;-65
2024/04/16 03:33:41;;;;;;;3.03;2.07;;;7.10;53.80;;;;;;5324953;26;20380;-65
2024/04/16 03:36:09;;;;;;;1.90;1.60;;;6.80;53.90;;;;;;5309799;26;20253;-65
2024/04/16 03:38:37;;;;;;;2.87;2.10;;;7.00;54.10;;;;;;5324673;26;20704;-65
2024/04/16 03:41:05;;;;;;;2.50;1.97;;;7.30;53.80;;;;;;5334356;26;20371;-65
2024/04/16 03:43:33;;;;;;;2.10;1.80;;;7.20;53.80;;;;;;5308566;26;20296;-65
2024/04/16 03:45:59;;;;;;;2.53;1.90;;;7.20;54.10;;;;;;5309585;26;20374;-65
2024/04/16 03:48:27;;;;;;;2.57;1.60;;;7.20;54.40;;;;;;5313973;26;20253;-64
2024/04/16 03:50:53;;;;;;;1.73;1.63;;;7.10;54.40;;;;;;5319283;26;20306;-65
2024/04/16 03:53:21;;;;;;;3.33;1.87;;;7.00;54.80;;;;;;5329207;26;20593;-64
2024/04/16 03:55:47;;;;;;;1.50;1.40;;;7.00;54.50;;;;;;5315395;26;20604;-65
2024/04/16 03:58:16;;;;;;;2.13;1.67;;;7.10;54.00;;;;;;5330702;26;20248;-65
2024/04/16 04:01:00;;;;;;;3.20;1.80;;;7.10;54.20;;;;;;5325439;26;20236;-65
2024/04/16 04:03:28;;;;;;;1.70;1.60;;;6.90;54.80;;;;;;5320195;26;20293;-65
2024/04/16 04:05:54;;;;;;;1.77;1.67;;;7.00;54.70;;;;;;5312813;26;20243;-65
2024/04/16 04:08:22;;;;;;;3.07;1.70;;;7.10;55.80;;;;;;5324531;26;20287;-64
2024/04/16 04:10:47;;;;;;;2.30;2.07;;;7.00;56.40;;;;;;5298390;26;20297;-64
2024/04/16 04:13:16;;;;;;;1.70;1.60;;;6.70;56.10;;;;;;5316436;26;20255;-65
2024/04/16 04:15:41;;;;;;;1.93;1.60;;;6.80;56.20;;;;;;5330492;26;20372;-65
2024/04/16 04:18:09;;;;;;;2.23;1.80;;;6.90;55.50;;;;;;5312607;26;20555;-65
2024/04/16 04:20:35;;;;;;;2.03;1.77;;;6.70;55.40;;;;;;5309974;26;20292;-65
2024/04/16 04:23:03;;;;;;;3.27;1.77;;;6.80;56.20;;;;;;5311738;26;20291;-64
2024/04/16 04:25:29;;;;;;;2.90;1.80;;;6.80;56.20;;;;;;5319521;26;20357;-65
2024/04/16 04:27:57;;;;;;;1.63;1.53;;;6.80;56.20;;;;;;5322860;26;20249;-65
2024/04/16 04:30:22;;;;;;;2.40;1.60;;;6.90;56.30;;;;;;5317870;26;20244;-65
2024/04/16 04:32:51;;;;;;;1.93;1.70;;;6.80;55.20;;;;;;5314456;26;20359;-64
2024/04/16 04:35:16;;;;;;;3.20;1.70;;;6.70;55.30;;;;;;5316837;26;20256;-64
2024/04/16 04:37:45;;;;;;;2.10;1.50;;;6.90;55.90;;;;;;5306634;26;20242;-66
2024/04/16 04:40:10;;;;;;;2.10;1.90;;;6.90;55.80;;;;;;5301202;26;20698;-65
2024/04/16 04:42:38;;;;;;;2.17;1.70;;;6.80;55.80;;;;;;5324218;26;20249;-65
2024/04/16 04:45:04;;;;;;;1.87;1.70;;;6.70;55.80;;;;;;5334410;26;20286;-65
2024/04/16 04:47:32;;;;;;;1.90;1.77;;;6.70;56.00;;;;;;5330303;26;20596;-65
2024/04/16 04:49:59;;;;;;;2.23;1.80;;;6.80;55.30;;;;;;5314640;26;20283;-65
2024/04/16 04:52:27;;;;;;;4.07;2.10;;;7.00;56.30;;;;;;5331908;26;20243;-65
2024/04/16 04:54:53;;;;;;;2.17;1.63;;;6.90;55.90;;;;;;5332104;26;20254;-65
2024/04/16 04:57:21;;;;;;;1.97;1.87;;;6.70;55.80;;;;;;5342712;26;20236;-65
2024/04/16 04:59:47;;;;;;;3.67;2.00;;;6.80;56.20;;;;;;5321409;26;21117;-66
2024/04/16 05:02:15;;;;;;;2.17;1.83;;;6.60;55.50;;;;;;5331229;26;20237;-65
2024/04/16 05:04:40;;;;;;;1.87;1.77;;;6.90;56.30;;;;;;5327409;26;20350;-65
2024/04/16 05:07:09;;;;;;;1.77;1.60;;;6.90;55.50;;;;;;5332793;26;20235;-65
2024/04/16 05:09:34;;;;;;;2.17;1.70;;;6.70;56.10;;;;;;5320813;26;20316;-65
2024/04/16 05:12:02;;;;;;;2.80;2.07;;;6.80;55.30;;;;;;5327452;26;20243;-65
2024/04/16 05:14:28;;;;;;;2.30;2.00;;;6.60;56.00;;;;;;5307400;26;20247;-66
2024/04/16 05:16:56;;;;;;;4.97;1.97;;;6.80;54.70;;;;;;5330891;26;20349;-65
2024/04/16 05:19:22;;;;;;;2.23;2.00;;;6.80;55.50;;;;;;5327377;26;20256;-66
2024/04/16 05:21:50;;;;;;;5.03;2.00;;;6.70;56.10;;;;;;5321823;26;20297;-65
2024/04/16 05:24:15;;;;;;;2.00;1.60;;;6.70;56.80;;;;;;5326668;26;20809;-65
2024/04/16 05:26:44;;;;;;;2.10;1.90;;;6.60;56.00;;;;;;5327007;26;20244;-65
2024/04/16 05:29:10;;;;;;;2.50;1.90;;;6.50;56.80;;;;;;5312986;26;20712;-66
2024/04/16 05:31:38;;;;;;;2.03;1.87;;;6.40;55.80;;;;;;5336773;26;20241;-65
2024/04/16 05:34:04;;;;;;;2.27;1.67;;;6.50;56.90;;;;;;5327931;26;20386;-66
2024/04/16 05:36:32;;;;;;;2.30;1.77;;;6.50;56.00;;;;;;5326808;26;20696;-65
2024/04/16 05:38:57;;;;;;;2.07;1.90;;;6.40;55.90;;;;;;5318329;26;20248;-66
2024/04/16 05:41:26;;;;;;;2.37;1.60;;;6.50;56.80;;;;;;5328842;26;20796;-66
2024/04/16 05:43:51;;;;;;;2.53;1.70;;;6.50;56.00;;;;;;5330620;26;20302;-65
2024/04/16 05:46:20;;;;;;;1.90;1.70;;;6.20;57.10;;;;;;5316790;26;20656;-65
2024/04/16 05:48:46;;;;;;;2.23;1.60;;;6.30;56.60;;;;;;5294773;26;20257;-65
2024/04/16 05:51:14;;;;;;;1.60;1.47;;;6.30;57.00;;;;;;5301089;26;20252;-65
2024/04/16 05:53:40;;;;;;;2.60;1.50;;;6.50;57.60;;;;;;5338807;26;20859;-66
2024/04/16 05:56:08;;;;;;;2.57;1.73;;;6.60;57.80;;;;;;5328161;26;20259;-66
2024/04/16 05:58:33;;;;;;;2.77;1.70;;;6.50;56.70;;;;;;5330044;26;20304;-66
2024/04/16 06:01:02;;;;;;;1.70;1.60;;;6.50;57.20;;;;;;5328632;26;20244;-66
2024/04/16 06:03:27;;;;;;;1.60;1.50;;;6.60;56.50;;;;;;5325097;26;21941;-65
2024/04/16 06:05:56;;;;;;;3.10;1.93;;;6.80;56.40;;;;;;5304631;26;20252;-66
2024/04/16 06:08:21;;;;;;;1.87;1.77;;;6.70;56.10;;;;;;5305680;26;20258;-66
2024/04/16 06:10:50;;;;;;;2.10;1.60;;;6.70;56.90;;;;;;5310839;26;20278;-64
2024/04/16 06:13:15;;;;;;;1.70;1.60;;;6.70;56.40;;;;;;5301689;26;20261;-65
2024/04/16 06:15:43;;;;;;;1.60;1.50;;;6.70;56.10;;;;;;5315367;26;20278;-66
2024/04/16 06:18:10;;;;;;;1.60;1.50;;;6.80;57.80;;;;;;5288769;26;20248;-65
2024/04/16 06:20:39;;;;;;;1.80;1.70;;;6.90;57.00;;;;;;5319926;26;20286;-66
2024/04/16 06:23:04;;;;;;;1.60;1.50;;;6.90;56.30;;;;;;5311878;26;20261;-66
2024/04/16 06:25:32;;;;;;;3.50;1.77;;;7.10;56.50;;;;;;5325002;26;20779;-66
2024/04/16 06:27:58;;;;;;;1.73;1.63;;;7.00;56.40;;;;;;5302481;26;20342;-66
2024/04/16 06:30:35;;;;;;;1.60;1.50;;;7.00;55.40;;;;;;5304484;26;20254;-66
2024/04/16 06:33:12;;;;;;;1.60;1.50;;;6.90;54.90;;;;;;5343621;21;20287;-65
2024/04/16 06:38:21;;;;;;;1.70;1.60;;;7.00;54.30;;;;;;5323805;26;20297;-66
2024/04/16 06:40:46;;;;;;;1.50;1.43;;;7.10;55.40;;;;;;5338893;26;20559;-64
2024/04/16 06:43:14;;;;;;;2.30;1.60;;;7.30;55.00;;;;;;5320727;26;20252;-66
2024/04/16 06:45:40;;;;;;;1.50;1.43;;;7.50;54.40;;;;;;5325844;26;20690;-66
2024/04/16 06:48:08;;;;;;;1.30;1.30;;;7.40;54.10;;;;;;5321926;26;20245;-66
2024/04/16 06:50:34;;;;;;;1.40;1.30;;;7.40;53.40;;;;;;5272550;26;20312;-64
2024/04/16 06:53:03;;;;;;;1.50;1.40;;;7.40;54.00;;;;;;5316808;26;20300;-64
2024/04/16 06:55:29;;;;;;;1.33;1.20;;;7.60;53.50;;;;;;5316298;26;20256;-65
2024/04/16 06:57:57;;;;;;;1.50;1.40;;;7.70;53.50;;;;;;5312902;26;20276;-65
2024/04/16 07:00:23;;;;;;;1.33;1.30;;;7.70;53.60;;;;;;5309138;26;20240;-65
2024/04/16 07:02:51;;;;;;;1.30;1.20;;;7.60;54.00;;;;;;5311817;26;20682;-66
2024/04/16 07:05:17;;;;;;;1.40;1.30;;;7.90;53.80;;;;;;5328576;26;20297;-65
2024/04/16 07:07:45;;;;;;;1.60;1.50;;;7.90;53.60;;;;;;5310476;26;21006;-65
2024/04/16 07:10:11;;;;;;;1.60;1.50;;;7.90;52.70;;;;;;5301342;26;20256;-65
2024/04/16 07:12:39;;;;;;;1.60;1.50;;;7.60;53.30;;;;;;5317952;26;20296;-65
2024/04/16 07:15:05;;;;;;;1.50;1.40;;;7.60;53.30;;;;;;5308161;26;20295;-63
2024/04/16 07:17:33;;;;;;;1.70;1.60;;;7.70;53.90;;;;;;5314564;26;20249;-63
2024/04/16 07:19:58;;;;;;;1.40;1.30;;;7.80;52.80;;;;;;5322062;26;20291;-65
2024/04/16 07:22:27;;;;;;;1.30;1.30;;;7.90;53.70;;;;;;5299011;26;20364;-63
2024/04/16 07:24:54;;;;;;;1.50;1.40;;;8.40;53.10;;;;;;5314243;26;20748;-65
2024/04/16 07:27:23;;;;;;;1.67;1.50;;;8.70;51.80;;;;;;5318753;26;20247;-65
2024/04/16 07:29:48;;;;;;;2.10;1.30;;;8.70;51.40;;;;;;5270525;26;20362;-65
2024/04/16 07:32:17;;;;;;;1.50;1.40;;;8.80;51.90;;;;;;5309297;26;20284;-65
2024/04/16 07:34:42;;;;;;;2.33;2.10;;;9.00;50.60;;;;;;5309174;26;20358;-66
2024/04/16 07:37:11;;;;;;;2.50;2.30;;;8.70;49.90;;;;;;5313713;26;20242;-65
2024/04/16 07:39:36;;;;;;;1.50;1.40;;;8.40;51.10;;;;;;5328821;26;20295;-65
2024/04/16 07:42:04;;;;;;;1.90;1.60;;;8.60;51.30;;;;;;5315627;26;20250;-65
2024/04/16 07:44:30;;;;;;;2.00;1.80;;;8.30;51.50;;;;;;5321885;26;20364;-65
2024/04/16 07:46:59;;;;;;;3.17;1.77;;;8.10;49.80;;;;;;5322187;26;20246;-65
2024/04/16 07:49:25;;;;;;;1.97;1.77;;;7.90;50.40;;;;;;5303787;26;20234;-67
2024/04/16 07:51:53;;;;;;;1.93;1.77;;;7.70;51.60;;;;;;5306166;26;20289;-65
2024/04/16 07:54:18;;;;;;;1.47;1.23;;;7.50;53.50;;;;;;5324688;26;20265;-65
2024/04/16 07:56:47;;;;;;;5.37;2.10;;;7.40;52.30;;;;;;5308489;26;20331;-65
2024/04/16 07:59:12;;;;;;;1.87;1.70;;;7.50;52.50;;;;;;5321734;26;20316;-65
2024/04/16 08:01:40;;;;;;;3.07;1.60;;;7.30;53.10;;;;;;5314370;26;20355;-65
2024/04/16 08:04:06;;;;;;;2.63;1.63;;;7.40;53.10;;;;;;5327697;26;20625;-65
2024/04/16 08:06:34;;;;;;;1.70;1.60;;;7.50;52.90;;;;;;5277948;27;20354;-65
2024/04/16 08:09:00;;;;;;;1.63;1.50;;;7.40;52.30;;;;;;5308182;26;20253;-66
2024/04/16 08:11:28;;;;;;;2.53;1.70;;;7.60;52.40;;;;;;5296350;26;20253;-67
2024/04/16 08:13:54;;;;;;;1.63;1.40;;;7.80;52.30;;;;;;5312015;26;20697;-65
2024/04/16 08:16:22;;;;;;;1.60;1.50;;;7.80;51.90;;;;;;5324027;26;20328;-65
2024/04/16 08:18:50;;;;;;;1.70;1.60;;;7.60;52.40;;;;;;5280695;26;20230;-65
2024/04/16 08:21:16;;;;;;;1.80;1.70;;;7.70;52.60;;;;;;5330146;26;20254;-65
2024/04/16 08:23:44;;;;;;;1.77;1.67;;;7.90;52.70;;;;;;5325086;26;20287;-65
2024/04/16 08:26:10;;;;;;;1.60;1.50;;;7.90;51.90;;;;;;5307344;26;20279;-65
2024/04/16 08:28:38;;;;;;;1.73;1.63;;;8.30;51.60;;;;;;5311624;26;20255;-65
2024/04/16 08:31:08;;;;;;;1.93;1.83;;;9.00;50.50;;;;;;5307135;26;20302;-64
2024/04/16 08:33:36;;;;;;;1.60;1.50;;;9.80;49.40;;;;;;5299942;26;20921;-66
2024/04/16 08:36:02;;;;;;;2.03;1.70;;;9.70;48.10;;;;;;5321894;26;22143;-66
2024/04/16 08:38:30;;;;;;;1.50;1.40;;;10.30;47.00;;;;;;5334158;26;20236;-65
2024/04/16 08:40:56;;;;;;;1.53;1.43;;;10.70;45.60;;;;;;5324468;26;20867;-66
2024/04/16 08:43:25;;;;;;;2.13;1.80;;;10.60;45.80;;;;;;5322560;26;20534;-66
2024/04/16 08:45:50;;;;;;;1.10;1.10;;;10.90;44.20;;;;;;5322714;26;20312;-66
2024/04/16 08:48:18;;;;;;;1.73;1.43;;;11.20;43.60;;;;;;5298863;26;21095;-65
2024/04/16 08:50:44;;;;;;;1.30;1.20;;;11.40;41.60;;;;;;5323217;26;20289;-66
2024/04/16 08:53:12;;;;;;;1.40;1.30;;;11.40;42.40;;;;;;5327835;26;20700;-65
2024/04/16 08:55:38;;;;;;;1.57;1.30;;;11.70;41.40;;;;;;5323743;26;20285;-66
2024/04/16 08:58:06;;;;;;;1.60;1.50;;;11.50;41.20;;;;;;5313474;26;20395;-65
2024/04/16 09:00:31;;;;;;;1.30;1.20;;;11.20;41.60;;;;;;5307702;26;20247;-66
2024/04/16 09:03:00;;;;;;;2.07;1.50;;;11.20;42.10;;;;;;5317401;26;20282;-64
2024/04/16 09:05:25;;;;;;;1.30;1.20;;;11.30;39.50;;;;;;5323256;26;20348;-65
2024/04/16 09:07:54;;;;;;;3.47;1.70;;;11.80;37.90;;;;;;5308057;26;20697;-65
2024/04/16 09:10:19;;;;;;;4.20;3.87;;;11.40;36.50;;;;;;5306056;26;20607;-65
2024/04/16 09:12:48;;;;;;;2.53;1.20;;;12.30;34.00;;;;;;5311484;26;20289;-65
2024/04/16 09:15:13;;;;;;;1.60;1.47;;;12.30;34.60;;;;;;5294188;26;20259;-65
2024/04/16 09:17:42;;;;;;;4.33;1.33;;;11.50;34.90;;;;;;5300048;27;21003;-65
2024/04/16 09:20:07;;;;;;;1.70;1.30;;;11.20;36.60;;;;;;5279622;26;20693;-65
2024/04/16 09:22:36;;;;;;;1.63;1.40;;;10.70;38.60;;;;;;5279681;26;20352;-66
2024/04/16 09:25:01;;;;;;;2.30;1.70;;;10.80;39.60;;;;;;5276745;26;20738;-65
2024/04/16 09:27:29;;;;;;;1.70;1.37;;;10.40;38.60;;;;;;5281651;26;20260;-65
2024/04/16 09:29:55;;;;;;;2.50;2.00;;;10.00;38.80;;;;;;5287808;26;20289;-65
2024/04/16 09:32:23;;;;;;;1.60;1.50;;;10.90;39.30;;;;;;5287556;26;20249;-65
2024/04/16 09:34:49;;;;;;;2.97;1.90;;;11.60;37.40;;;;;;5279862;26;20304;-65
2024/04/16 09:37:17;;;;;;;5.67;2.20;;;11.50;35.60;;;;;;5285837;26;20256;-65
2024/04/16 09:39:43;;;;;;;3.53;1.73;;;11.70;34.50;;;;;;5283378;26;20642;-66
2024/04/16 09:42:11;;;;;;;1.77;1.40;;;11.80;35.30;;;;;;5289960;26;20329;-65
2024/04/16 09:44:36;;;;;;;2.10;1.60;;;11.90;34.40;;;;;;5283362;26;20242;-65
2024/04/16 09:47:05;;;;;;;2.90;1.60;;;11.60;33.80;;;;;;5287215;26;20258;-65
2024/04/16 09:49:31;;;;;;;2.73;1.77;;;11.50;33.40;;;;;;5281731;26;20290;-64
2024/04/16 09:52:01;;;;;;;2.63;2.00;;;11.50;35.20;;;;;;5282453;26;20263;-65
2024/04/16 09:54:26;;;;;;;2.43;1.80;;;11.70;33.90;;;;;;5284253;26;20256;-65
2024/04/16 09:56:55;;;;;;;1.70;1.60;;;11.80;33.40;;;;;;5280104;26;20332;-66
2024/04/16 09:59:20;;;;;;;3.77;1.67;;;11.30;32.60;;;;;;5283783;26;20267;-65
2024/04/16 10:01:48;;;;;;;4.40;1.63;;;11.10;33.50;;;;;;5283238;26;20357;-64
2024/04/16 10:04:14;;;;;;;6.70;3.57;;;11.10;33.70;;;;;;5303743;26;20269;-65
2024/04/16 10:06:43;;;;;;;4.53;1.50;;;10.90;34.30;;;;;;5280681;26;20622;-64
2024/04/16 10:09:08;;;;;;;3.97;2.30;;;11.10;33.30;;;;;;5285683;26;20299;-64
2024/04/16 10:11:36;;;;;;;4.43;1.90;;;11.10;33.30;;;;;;5282400;26;20259;-65
2024/04/16 10:14:02;;;;;;;3.80;1.87;;;11.80;33.10;;;;;;5281620;26;20723;-65
2024/04/16 10:16:33;;;;;;;3.70;1.70;;;11.50;31.80;;;;;;5287171;26;20258;-65
2024/04/16 10:18:59;;;;;;;1.90;1.53;;;11.90;31.30;;;;;;5279384;26;20310;-63
2024/04/16 10:21:27;;;;;;;4.33;1.70;;;12.00;30.80;;;;;;5280933;26;20266;-65
2024/04/16 10:23:53;;;;;;;2.00;1.53;;;11.50;31.50;;;;;;5284202;26;20794;-64
2024/04/16 10:26:22;;;;;;;2.97;1.50;;;11.40;31.00;;;;;;5286654;26;20260;-65
2024/04/16 10:28:47;;;;;;;1.47;1.37;;;11.10;31.50;;;;;;5298745;26;20367;-64
2024/04/16 10:31:15;;;;;;;2.87;2.00;;;11.20;32.10;;;;;;5323692;26;20250;-64
2024/04/16 10:33:42;;;;;;;2.53;1.70;;;11.50;31.10;;;;;;5324438;26;20363;-64
2024/04/16 10:36:11;;;;;;;3.80;1.90;;;12.20;31.60;;;;;;5319425;26;20720;-64
2024/04/16 10:38:37;;;;;;;3.00;1.60;;;12.20;28.90;;;;;;5308168;26;20445;-65
2024/04/16 10:41:05;;;;;;;3.87;1.70;;;11.50;30.00;;;;;;5309613;26;20768;-65
2024/04/16 10:43:30;;;;;;;6.37;1.80;;;11.50;31.00;;;;;;5308038;26;20301;-64
2024/04/16 10:45:59;;;;;;;2.83;1.70;;;11.20;29.90;;;;;;5304210;26;20243;-64
2024/04/16 10:48:24;;;;;;;1.97;1.80;;;11.40;30.50;;;;;;5303700;26;20264;-64
2024/04/16 10:50:52;;;;;;;3.63;1.87;;;11.30;30.60;;;;;;5305021;26;20801;-64
2024/04/16 10:53:18;;;;;;;2.50;1.90;;;10.80;31.20;;;;;;5311102;26;20859;-64
2024/04/16 10:55:46;;;;;;;2.53;1.63;;;10.80;31.20;;;;;;5317475;26;20247;-64
2024/04/16 10:58:12;;;;;;;2.60;2.10;;;10.80;31.30;;;;;;5305623;26;20362;-65
2024/04/16 11:00:40;;;;;;;2.00;1.80;;;10.90;31.30;;;;;;5313881;26;20246;-65
2024/04/16 11:03:06;;;;;;;2.77;1.83;;;10.70;31.10;;;;;;5309803;26;20364;-64
2024/04/16 11:05:35;;;;;;;2.60;1.40;;;10.80;31.00;;;;;;5316243;26;20242;-64
2024/04/16 11:08:02;;;;;;;4.10;1.70;;;10.90;31.40;;;;;;5310923;26;20354;-65
2024/04/16 11:10:30;;;;;;;5.70;2.40;;;10.90;31.20;;;;;;5324047;26;20249;-65
2024/04/16 11:12:56;;;;;;;5.23;2.13;;;11.20;31.50;;;;;;5312360;26;20265;-65
2024/04/16 11:15:24;;;;;;;6.27;2.30;;;11.10;31.50;;;;;;5306216;26;20815;-63
2024/04/16 11:17:49;;;;;;;2.83;1.73;;;11.10;30.40;;;;;;5294678;26;20355;-64
2024/04/16 11:20:18;;;;;;;2.20;2.03;;;11.40;30.40;;;;;;5298705;26;20283;-64
2024/04/16 11:22:43;;;;;;;3.57;1.63;;;12.60;29.40;;;;;;5313581;26;20686;-63
2024/04/16 11:25:11;;;;;;;2.40;1.57;;;12.40;28.70;;;;;;5294691;26;20312;-63
2024/04/16 11:27:37;;;;;;;6.70;1.93;;;11.90;28.90;;;;;;5313680;26;20314;-63
2024/04/16 11:30:05;;;;;;;2.20;1.63;;;11.70;28.30;;;;;;5283391;26;20352;-64
2024/04/16 11:32:31;;;;;;;3.63;1.70;;;12.40;28.40;;;;;;5292132;26;20263;-64
2024/04/16 11:34:59;;;;;;;1.97;1.80;;;13.20;26.60;;;;;;5309218;26;20357;-64
2024/04/16 11:37:25;;;;;;;3.03;1.70;;;13.90;26.90;;;;;;5320147;26;20280;-63
2024/04/16 11:39:54;;;;;;;3.57;1.53;;;16.30;23.60;;;;;;5329401;26;20247;-63
2024/04/16 11:42:20;;;;;;;2.05;1.20;;;15.90;23.80;;;;;;5312385;26;20819;-63
2024/04/16 11:44:48;;;;;;;3.25;1.30;;;17.10;23.50;;;;;;5301878;26;20238;-68
2024/04/16 11:47:14;;;;;;;2.55;1.75;;;15.20;23.40;;;;;;5282439;26;20889;-64
2024/04/16 11:49:42;;;;;;;3.83;1.40;;;15.50;23.20;;;;;;5290444;26;20250;-64
2024/04/16 11:52:10;;;;;;;2.23;1.50;;;13.80;25.60;;;;;;5326452;26;20390;-63
2024/04/16 11:54:36;;;;;;;2.33;1.50;;;13.30;26.60;;;;;;5313658;26;20245;-64
2024/04/16 11:57:05;;;;;;;2.57;1.93;;;13.50;26.50;;;;;;5306088;26;20300;-63
2024/04/16 11:59:30;;;;;;;2.33;2.13;;;13.40;26.70;;;;;;5304955;26;20245;-64
2024/04/16 12:01:58;;;;;;;3.63;1.60;;;12.80;28.00;;;;;;5321345;26;20257;-63
2024/04/16 12:04:24;;;;;;;4.53;2.70;;;12.50;27.90;;;;;;5299765;26;20590;-64
2024/04/16 12:06:52;;;;;;;2.83;2.07;;;12.60;28.50;;;;;;5305730;26;20321;-64
2024/04/16 12:09:18;;;;;;;2.50;1.83;;;13.50;26.60;;;;;;5293391;26;20312;-62
2024/04/16 12:11:46;;;;;;;2.80;1.53;;;13.30;27.40;;;;;;5295878;26;20334;-64
2024/04/16 12:14:12;;;;;;;2.77;1.50;;;12.90;28.30;;;;;;5284846;26;20259;-65
2024/04/16 12:16:40;;;;;;;6.23;1.83;;;12.70;27.60;;;;;;5261835;27;20291;-64
2024/04/16 12:19:06;;;;;;;4.23;1.70;;;13.00;27.80;;;;;;5289245;26;20247;-64
2024/04/16 12:21:34;;;;;;;4.07;1.50;;;13.20;27.70;;;;;;5291509;26;20285;-64
2024/04/16 12:24:00;;;;;;;3.50;1.60;;;13.30;27.00;;;;;;5294958;26;20872;-64
2024/04/16 12:26:28;;;;;;;6.03;2.43;;;13.60;26.90;;;;;;5300866;26;20256;-63
2024/04/16 12:28:55;;;;;;;3.63;2.00;;;13.60;27.30;;;;;;5301219;26;20316;-63
2024/04/16 12:31:23;;;;;;;3.73;1.90;;;13.30;28.50;;;;;;5292377;26;20234;-64
2024/04/16 12:33:49;;;;;;;2.77;1.60;;;12.90;27.90;;;;;;5302161;26;20359;-64
2024/04/16 12:36:17;;;;;;;4.73;1.67;;;12.90;27.70;;;;;;5301177;26;20757;-64
2024/04/16 12:38:44;;;;;;;2.60;1.50;;;12.60;28.00;;;;;;5304658;26;20682;-64
2024/04/16 12:41:12;;;;;;;2.13;1.40;;;12.50;28.50;;;;;;5299179;26;20292;-63
2024/04/16 12:43:37;;;;;;;2.97;1.60;;;12.70;28.60;;;;;;5312924;26;20266;-64
2024/04/16 12:46:06;;;;;;;1.63;1.40;;;12.60;28.20;;;;;;5301299;26;20244;-64
2024/04/16 12:48:32;;;;;;;10.20;2.70;;;12.70;28.10;;;;;;5298722;26;20808;-64
2024/04/16 12:51:00;;;;;;;2.80;1.87;;;12.50;28.70;;;;;;5302995;26;20256;-64
2024/04/16 12:53:26;;;;;;;5.73;2.00;;;12.30;29.20;;;;;;5293114;26;20248;-64
2024/04/16 12:55:54;;;;;;;3.33;1.50;;;12.40;28.80;;;;;;5299715;26;20240;-64